Time;durP1;ratioP1;P1;durP2;ratioP2;P2;SDS_P1;SDS_P2;PMS_P1;PMS_P2;Temp;Humidity;BMP_temperature;BMP_pressure;BME280_temperature;BME280_humidity;BME280_pressure;Samples;Min_cycle;Max_cycle;Signal;HPM_P1;HPM_P2
2024/03/22 00:01:23;;;;;;;20.13;12.07;;;9.30;89.40;;;;;;5116031;28;20245;-65
2024/03/22 00:03:50;;;;;;;19.48;12.85;;;9.20;89.00;;;;;;5115463;28;20216;-65
2024/03/22 00:06:21;;;;;;;19.00;12.55;;;9.20;89.60;;;;;;5115823;28;20211;-65
2024/03/22 00:08:49;;;;;;;15.50;11.63;;;9.20;90.00;;;;;;5116648;28;20216;-65
2024/03/22 00:11:18;;;;;;;16.13;12.63;;;9.20;89.90;;;;;;5116460;28;20184;-65
2024/03/22 00:14:09;;;;;;;14.30;11.82;;;9.10;89.70;;;;;;5116155;28;20172;-65
2024/03/22 00:16:37;;;;;;;15.38;11.30;;;9.10;89.60;;;;;;5076406;28;20174;-65
2024/03/22 00:25:20;;;;;;;15.27;11.65;;;9.00;89.10;;;;;;5075621;28;20173;-65
2024/03/22 00:27:46;;;;;;;15.93;10.70;;;9.00;89.70;;;;;;5072485;28;20544;-65
2024/03/22 00:30:19;;;;;;;15.38;11.13;;;9.00;90.20;;;;;;5075469;28;20642;-65
2024/03/22 00:32:47;;;;;;;13.15;10.00;;;9.00;90.30;;;;;;5091976;28;20210;-65
2024/03/22 00:39:00;;;;;;;14.48;10.90;;;8.90;90.10;;;;;;5095640;28;20701;-65
2024/03/22 00:41:53;;;;;;;13.27;11.40;;;8.90;90.00;;;;;;5094532;28;20216;-65
2024/03/22 00:50:55;;;;;;;18.42;9.80;;;8.80;88.90;;;;;;5075768;28;20178;-65
2024/03/22 00:56:47;;;;;;;20.55;11.70;;;8.80;89.50;;;;;;5095310;28;20546;-65
2024/03/22 01:02:37;;;;;;;14.73;10.35;;;8.80;90.40;;;;;;5094731;28;20223;-65
2024/03/22 01:05:04;;;;;;;9.88;7.47;;;8.90;90.70;;;;;;5096416;28;20173;-65
2024/03/22 01:18:23;;;;;;;9.57;7.95;;;8.70;89.00;;;;;;5115626;28;20164;-65
2024/03/22 01:24:14;;;;;;;12.32;9.15;;;8.70;89.20;;;;;;5115129;28;20160;-65
2024/03/22 01:30:06;;;;;;;10.80;9.57;;;8.70;90.50;;;;;;5114481;28;20629;-65
2024/03/22 01:35:56;;;;;;;12.63;10.15;;;8.80;91.00;;;;;;5115009;28;20148;-65
2024/03/22 01:38:24;;;;;;;12.18;9.68;;;8.90;90.50;;;;;;5114466;28;20181;-65
2024/03/22 01:40:53;;;;;;;13.02;9.65;;;8.90;90.40;;;;;;5115465;28;20534;-65
2024/03/22 01:43:19;;;;;;;13.75;10.90;;;8.90;90.30;;;;;;5115214;28;20243;-65
2024/03/22 01:55:53;;;;;;;12.85;9.38;;;8.80;91.00;;;;;;5114545;28;20645;-65
2024/03/22 02:05:31;;;;;;;13.23;9.60;;;8.90;91.40;;;;;;5113711;28;20334;-65
2024/03/22 02:07:59;;;;;;;14.82;10.23;;;8.90;91.20;;;;;;5114006;28;20196;-65
2024/03/22 02:11:13;;;;;;;12.77;9.02;;;8.80;91.20;;;;;;5114153;28;20226;-65
2024/03/22 02:21:05;;;;;;;12.55;9.20;;;8.90;91.50;;;;;;5113975;28;20213;-65
2024/03/22 02:26:55;;;;;;;13.75;11.52;;;8.90;91.20;;;;;;5114084;28;20156;-65
2024/03/22 02:29:36;;;;;;;15.55;10.65;;;8.80;91.70;;;;;;5113896;28;20180;-65
2024/03/22 02:32:05;;;;;;;14.88;10.80;;;8.90;91.90;;;;;;5113748;28;20176;-65
2024/03/22 02:34:36;;;;;;;16.95;10.68;;;9.10;91.40;;;;;;5113489;28;20212;-65
2024/03/22 02:37:28;;;;;;;13.95;11.40;;;9.10;91.10;;;;;;5114868;28;20464;-65
2024/03/22 02:43:21;;;;;;;13.65;10.60;;;9.00;91.20;;;;;;5113813;28;20195;-65
2024/03/22 02:49:09;;;;;;;14.10;10.50;;;8.90;91.50;;;;;;5113768;28;20197;-65
2024/03/22 02:54:58;;;;;;;14.23;9.50;;;8.80;91.50;;;;;;5114220;28;20209;-65
2024/03/22 03:00:57;;;;;;;10.43;7.85;;;8.60;90.70;;;;;;5113317;28;20209;-65
2024/03/22 03:03:25;;;;;;;10.75;7.95;;;8.50;90.20;;;;;;5114548;28;20196;-65
2024/03/22 03:05:52;;;;;;;14.10;9.25;;;8.50;90.40;;;;;;5114526;28;20208;-65
2024/03/22 03:11:41;;;;;;;18.65;11.48;;;8.50;91.00;;;;;;5113524;28;20175;-65
2024/03/22 03:24:51;;;;;;;13.65;9.48;;;8.50;92.50;;;;;;5113535;28;20689;-65
2024/03/22 03:30:40;;;;;;;14.05;9.82;;;8.50;91.50;;;;;;5113425;28;20240;-65
2024/03/22 03:36:29;;;;;;;14.07;10.95;;;8.40;91.90;;;;;;5117332;28;20144;-65
2024/03/22 03:42:21;;;;;;;13.38;10.63;;;8.50;92.00;;;;;;5116449;28;20820;-65
2024/03/22 03:48:10;;;;;;;20.05;13.23;;;8.40;92.70;;;;;;5117070;28;20206;-65
2024/03/22 03:53:59;;;;;;;17.13;11.73;;;8.40;93.00;;;;;;5116895;28;20159;-66
2024/03/22 03:56:25;;;;;;;16.48;11.23;;;8.40;93.00;;;;;;5116371;28;20176;-66
2024/03/22 04:02:15;;;;;;;16.20;11.07;;;8.50;92.50;;;;;;5117038;28;20475;-65
2024/03/22 04:08:05;;;;;;;14.07;10.25;;;8.50;92.30;;;;;;5116670;28;20198;-65
2024/03/22 04:10:33;;;;;;;8.10;6.65;;;8.50;92.20;;;;;;5116059;28;20176;-65
2024/03/22 04:16:22;;;;;;;8.85;6.82;;;8.40;90.80;;;;;;5116780;28;20483;-65
2024/03/22 04:26:12;;;;;;;21.95;12.15;;;8.20;89.00;;;;;;5116927;28;20266;-65
2024/03/22 04:28:39;;;;;;;17.15;12.63;;;8.10;90.00;;;;;;5100818;28;20268;-65
2024/03/22 04:31:07;;;;;;;16.88;11.75;;;8.10;90.30;;;;;;5117220;28;20183;-65
2024/03/22 04:37:05;;;;;;;15.10;12.88;;;8.00;90.50;;;;;;5115840;28;20191;-65
2024/03/22 04:39:34;;;;;;;17.27;13.27;;;7.90;91.30;;;;;;5113352;28;20184;-65
2024/03/22 04:45:24;;;;;;;13.65;10.27;;;7.80;91.90;;;;;;5116361;28;20508;-65
2024/03/22 04:51:13;;;;;;;14.02;11.02;;;7.80;92.80;;;;;;5115259;28;20202;-65
2024/03/22 04:53:39;;;;;;;12.38;9.38;;;7.80;92.80;;;;;;5116778;28;20211;-65
2024/03/22 04:56:09;;;;;;;16.80;9.53;;;7.70;91.80;;;;;;5116759;28;20556;-65
2024/03/22 05:02:11;;;;;;;10.00;7.95;;;7.70;91.10;;;;;;5115753;28;20534;-64
2024/03/22 05:04:37;;;;;;;10.95;8.70;;;7.60;90.50;;;;;;5116121;28;20260;-65
2024/03/22 05:07:05;;;;;;;13.43;9.50;;;7.60;90.40;;;;;;5116306;28;20172;-65
2024/03/22 05:09:32;;;;;;;13.75;8.57;;;7.50;90.10;;;;;;5116313;28;20180;-66
2024/03/22 05:12:01;;;;;;;9.32;7.72;;;7.50;89.60;;;;;;5115289;28;20630;-65
2024/03/22 05:17:54;;;;;;;12.23;9.02;;;7.50;89.00;;;;;;5115096;28;20614;-65
2024/03/22 05:20:21;;;;;;;15.82;10.95;;;7.50;90.20;;;;;;5075342;28;20205;-64
2024/03/22 05:26:55;;;;;;;12.80;9.35;;;7.40;90.50;;;;;;5094724;28;20175;-64
2024/03/22 05:32:46;;;;;;;12.55;9.40;;;7.40;91.40;;;;;;5093620;28;20199;-64
2024/03/22 05:38:43;;;;;;;13.90;9.52;;;7.50;91.80;;;;;;5094390;28;20148;-65
2024/03/22 05:41:11;;;;;;;14.65;10.63;;;7.50;92.30;;;;;;5094302;28;20600;-65
2024/03/22 05:43:38;;;;;;;13.75;9.07;;;7.50;92.50;;;;;;5095042;28;20296;-65
2024/03/22 05:46:06;;;;;;;12.48;9.23;;;7.50;92.80;;;;;;5094050;28;20227;-65
2024/03/22 05:51:55;;;;;;;14.88;10.48;;;7.70;92.60;;;;;;5094152;28;20511;-64
2024/03/22 06:01:21;;;;;;;15.20;11.75;;;7.80;93.30;;;;;;5093609;28;20594;-65
2024/03/22 06:03:47;;;;;;;12.30;10.23;;;7.80;93.50;;;;;;5092819;28;20257;-65
2024/03/22 06:06:39;;;;;;;15.00;10.57;;;7.90;93.70;;;;;;5094525;28;20256;-65
2024/03/22 06:09:11;;;;;;;12.63;9.50;;;8.00;93.50;;;;;;5093576;28;20181;-65
2024/03/22 06:11:38;;;;;;;12.52;8.50;;;8.10;93.30;;;;;;5094370;28;20225;-64
2024/03/22 06:17:28;;;;;;;11.18;7.53;;;8.20;93.00;;;;;;5092490;28;20222;-65
2024/03/22 06:20:22;;;;;;;10.35;8.27;;;8.30;92.30;;;;;;5094047;28;20180;-65
2024/03/22 06:30:39;;;;;;;13.90;12.50;;;8.40;91.10;;;;;;5093861;28;20618;-65
2024/03/22 06:33:06;;;;;;;19.25;13.02;;;8.50;91.80;;;;;;5093070;28;20238;-65
2024/03/22 06:35:35;;;;;;;14.73;11.95;;;8.60;92.30;;;;;;5093381;28;20185;-65
2024/03/22 06:41:38;;;;;;;12.60;9.93;;;8.80;92.10;;;;;;5093758;28;20153;-65
2024/03/22 06:44:37;;;;;;;14.18;9.55;;;8.90;91.60;;;;;;5093504;28;20292;-64
2024/03/22 06:47:04;;;;;;;18.92;11.77;;;8.80;91.90;;;;;;5090200;28;20184;-64
2024/03/22 06:49:35;;;;;;;10.88;8.90;;;8.80;92.20;;;;;;5093311;28;20169;-64
2024/03/22 06:52:02;;;;;;;17.42;11.27;;;9.00;92.30;;;;;;5092918;28;20193;-64
2024/03/22 06:54:30;;;;;;;12.80;10.32;;;9.00;92.30;;;;;;5094298;28;20201;-64
2024/03/22 07:00:20;;;;;;;14.45;10.65;;;9.40;93.00;;;;;;5093474;28;20554;-64
2024/03/22 07:02:45;;;;;;;13.25;9.77;;;9.80;93.10;;;;;;5093470;28;20583;-65
2024/03/22 07:05:44;;;;;;;9.47;7.63;;;10.00;92.50;;;;;;5093494;28;20233;-64
2024/03/22 07:08:10;;;;;;;11.35;7.93;;;10.40;92.50;;;;;;5097351;28;20468;-64
2024/03/22 07:10:40;;;;;;;15.83;6.77;;;10.60;91.90;;;;;;5097716;28;20177;-64
2024/03/22 07:13:06;;;;;;;8.23;6.00;;;10.90;91.90;;;;;;5097553;28;20476;-65
2024/03/22 07:15:33;;;;;;;8.45;7.10;;;11.40;90.70;;;;;;5097464;28;20519;-65
2024/03/22 07:18:00;;;;;;;8.75;6.78;;;11.80;90.50;;;;;;5097003;28;20173;-65
2024/03/22 07:20:27;;;;;;;7.63;6.80;;;12.20;90.00;;;;;;5096124;28;20276;-65
2024/03/22 07:22:57;;;;;;;8.60;6.30;;;12.70;88.60;;;;;;5096590;28;20503;-66
2024/03/22 07:25:24;;;;;;;8.20;6.20;;;13.10;85.80;;;;;;5096964;28;20469;-65
2024/03/22 07:27:52;;;;;;;7.80;5.43;;;13.70;82.00;;;;;;5093965;28;20426;-66
2024/03/22 07:30:21;;;;;;;10.13;5.07;;;14.20;83.10;;;;;;5095579;28;20931;-66
2024/03/22 07:32:47;;;;;;;8.67;6.03;;;14.80;76.40;;;;;;5078633;28;20439;-66
2024/03/22 07:35:14;;;;;;;10.23;5.90;;;15.50;78.70;;;;;;5095524;28;20431;-66
2024/03/22 07:37:40;;;;;;;5.57;4.07;;;16.30;73.20;;;;;;5096334;28;20489;-66
2024/03/22 07:40:10;;;;;;;6.03;4.23;;;17.10;68.60;;;;;;5096388;28;20432;-66
2024/03/22 07:42:35;;;;;;;8.80;4.47;;;17.80;67.00;;;;;;5114394;28;20521;-66
2024/03/22 07:45:24;;;;;;;5.30;4.10;;;18.60;60.80;;;;;;5116902;28;20425;-66
2024/03/22 07:47:53;;;;;;;6.73;4.57;;;19.50;57.50;;;;;;5100942;28;20456;-66
2024/03/22 07:50:20;;;;;;;5.10;3.30;;;20.20;57.80;;;;;;5115961;28;20460;-66
2024/03/22 07:52:46;;;;;;;4.30;3.30;;;20.90;54.00;;;;;;5116692;28;20429;-66
2024/03/22 07:55:14;;;;;;;4.10;3.03;;;21.60;51.90;;;;;;5116512;28;20484;-66
2024/03/22 07:57:40;;;;;;;7.87;3.27;;;22.20;47.90;;;;;;5116701;28;20430;-66
2024/03/22 08:00:08;;;;;;;7.27;4.80;;;22.40;46.20;;;;;;5116937;28;20500;-66
2024/03/22 08:02:34;;;;;;;3.40;2.73;;;22.80;45.90;;;;;;5116607;28;20466;-66
2024/03/22 08:05:01;;;;;;;4.10;3.13;;;23.40;44.20;;;;;;5116414;28;20434;-66
2024/03/22 08:07:27;;;;;;;6.27;3.30;;;23.80;42.50;;;;;;5116271;28;20434;-66
2024/03/22 08:09:55;;;;;;;5.90;3.03;;;24.20;42.20;;;;;;5116598;28;20462;-67
2024/03/22 08:12:24;;;;;;;3.90;2.70;;;24.70;42.30;;;;;;5116436;28;20434;-67
2024/03/22 08:14:51;;;;;;;4.80;2.60;;;25.10;40.70;;;;;;5116557;28;20443;-67
2024/03/22 08:17:17;;;;;;;4.00;2.00;;;25.60;38.90;;;;;;5115885;28;20426;-67
2024/03/22 08:19:45;;;;;;;3.40;2.20;;;26.00;38.40;;;;;;5116016;28;20452;-67
2024/03/22 08:22:11;;;;;;;4.43;2.80;;;26.40;36.30;;;;;;5116336;28;20819;-67
2024/03/22 08:24:38;;;;;;;3.77;2.90;;;26.80;36.30;;;;;;5115879;28;20630;-67
2024/03/22 08:27:04;;;;;;;5.20;2.27;;;27.00;33.70;;;;;;5116551;28;20465;-67
2024/03/22 08:29:32;;;;;;;4.20;2.50;;;26.90;31.90;;;;;;5116002;28;20436;-67
2024/03/22 08:31:58;;;;;;;3.30;2.50;;;26.80;32.10;;;;;;5115592;28;20484;-67
2024/03/22 08:34:25;;;;;;;5.17;2.13;;;26.90;33.00;;;;;;5115217;28;20802;-67
2024/03/22 08:36:51;;;;;;;4.10;2.23;;;27.20;32.00;;;;;;5115785;28;20450;-68
2024/03/22 08:39:24;;;;;;;3.50;2.20;;;27.40;32.90;;;;;;5115881;28;20951;-67
2024/03/22 08:41:51;;;;;;;3.90;2.17;;;28.00;32.00;;;;;;5115590;28;20532;-67
2024/03/22 08:44:17;;;;;;;3.30;1.97;;;28.30;31.40;;;;;;5115519;28;20470;-67
2024/03/22 08:46:45;;;;;;;3.70;2.20;;;28.60;31.00;;;;;;5115373;28;20473;-67
2024/03/22 08:49:13;;;;;;;3.50;2.10;;;28.90;29.10;;;;;;5114967;28;20796;-67
2024/03/22 08:51:39;;;;;;;4.37;2.03;;;29.20;29.10;;;;;;5115308;28;20943;-67
2024/03/22 08:54:06;;;;;;;2.77;1.87;;;29.50;27.70;;;;;;5115409;28;20474;-67
2024/03/22 08:56:32;;;;;;;4.17;1.90;;;29.80;26.40;;;;;;5115131;28;20469;-67
2024/03/22 08:58:59;;;;;;;2.90;1.73;;;30.00;26.40;;;;;;5115639;28;20524;-67
2024/03/22 09:01:25;;;;;;;4.53;2.03;;;30.20;26.30;;;;;;5115253;28;20430;-67
2024/03/22 09:03:53;;;;;;;3.07;1.97;;;30.40;26.10;;;;;;5115241;28;20520;-67
2024/03/22 09:06:19;;;;;;;4.13;2.00;;;30.40;24.70;;;;;;5115466;28;20513;-67
2024/03/22 09:08:46;;;;;;;3.50;1.97;;;30.40;26.40;;;;;;5115036;28;20426;-67
2024/03/22 09:11:12;;;;;;;3.43;2.00;;;30.70;25.60;;;;;;5115339;28;20435;-67
2024/03/22 09:13:39;;;;;;;3.40;2.27;;;31.00;24.40;;;;;;5115341;28;20442;-67
2024/03/22 09:16:05;;;;;;;2.90;1.77;;;31.30;23.70;;;;;;5115260;28;20430;-67
2024/03/22 09:18:32;;;;;;;3.20;1.87;;;31.40;24.10;;;;;;5115188;28;20473;-67
2024/03/22 09:21:00;;;;;;;4.80;2.10;;;31.70;23.50;;;;;;5114867;28;20434;-68
2024/03/22 09:23:27;;;;;;;3.20;1.60;;;31.90;23.50;;;;;;5114832;28;20988;-67
2024/03/22 09:25:53;;;;;;;4.00;1.70;;;32.20;22.30;;;;;;5114809;28;20454;-66
2024/03/22 09:28:20;;;;;;;3.57;1.80;;;32.30;22.50;;;;;;5115172;28;20525;-66
2024/03/22 09:30:47;;;;;;;3.20;1.70;;;32.40;22.40;;;;;;5113709;28;20477;-66
2024/03/22 09:33:14;;;;;;;4.60;2.47;;;32.60;21.90;;;;;;5114954;28;20499;-67
2024/03/22 09:35:40;;;;;;;3.43;2.20;;;32.70;21.50;;;;;;5114841;28;20438;-66
2024/03/22 09:38:08;;;;;;;4.07;2.00;;;32.50;21.00;;;;;;5114813;28;20469;-66
2024/03/22 09:40:38;;;;;;;3.20;2.00;;;32.30;21.10;;;;;;5114843;28;20473;-67
2024/03/22 09:43:07;;;;;;;7.00;2.17;;;32.30;21.90;;;;;;5114269;28;20968;-66
2024/03/22 09:45:34;;;;;;;4.47;1.97;;;32.50;22.20;;;;;;5115037;28;20430;-66
2024/03/22 09:48:02;;;;;;;3.07;1.80;;;32.70;22.90;;;;;;5114326;28;20437;-66
2024/03/22 09:50:29;;;;;;;3.00;1.90;;;33.10;23.00;;;;;;5114552;28;20485;-66
2024/03/22 09:52:57;;;;;;;4.57;1.97;;;33.50;22.60;;;;;;5114187;28;20433;-67
2024/03/22 09:55:25;;;;;;;6.90;1.90;;;33.90;22.70;;;;;;5114089;28;20452;-67
2024/03/22 09:57:53;;;;;;;4.40;2.00;;;34.20;21.90;;;;;;5114627;28;20437;-66
2024/03/22 10:00:21;;;;;;;3.47;2.23;;;34.40;20.90;;;;;;5114053;28;20430;-67
2024/03/22 10:02:50;;;;;;;3.20;1.70;;;34.50;21.10;;;;;;5114240;28;20776;-66
2024/03/22 10:05:17;;;;;;;5.60;1.70;;;34.80;22.00;;;;;;5114192;28;20463;-67
2024/03/22 10:07:44;;;;;;;4.83;2.10;;;35.10;21.60;;;;;;5114116;28;20442;-67
2024/03/22 10:10:12;;;;;;;4.43;2.00;;;35.30;20.50;;;;;;5113864;28;20430;-67
2024/03/22 10:12:40;;;;;;;3.80;2.20;;;35.40;19.60;;;;;;5112702;28;20466;-68
2024/03/22 10:15:08;;;;;;;2.93;1.67;;;35.40;19.60;;;;;;5113986;28;20513;-68
2024/03/22 10:17:36;;;;;;;3.60;1.80;;;35.60;20.20;;;;;;5113655;28;20503;-68
2024/03/22 10:20:03;;;;;;;3.03;1.80;;;35.70;20.40;;;;;;5113643;28;20438;-68
2024/03/22 10:22:30;;;;;;;4.43;1.67;;;35.80;21.20;;;;;;5113946;28;20445;-66
2024/03/22 10:25:00;;;;;;;4.17;2.00;;;35.90;20.40;;;;;;5113707;28;20465;-68
2024/03/22 10:27:32;;;;;;;5.43;2.00;;;35.60;19.00;;;;;;5113554;28;20510;-66
2024/03/22 10:30:00;;;;;;;6.87;2.00;;;34.90;18.30;;;;;;5113888;28;20471;-67
2024/03/22 10:32:27;;;;;;;4.00;2.03;;;34.20;19.30;;;;;;5113767;28;20485;-66
2024/03/22 10:34:53;;;;;;;3.80;1.53;;;33.60;21.10;;;;;;5113724;28;20458;-67
2024/03/22 10:37:21;;;;;;;3.00;1.67;;;33.10;20.50;;;;;;5113355;28;20477;-66
2024/03/22 10:39:52;;;;;;;4.07;2.10;;;32.50;20.40;;;;;;5113642;28;20469;-66
2024/03/22 10:42:19;;;;;;;4.20;1.60;;;31.90;21.00;;;;;;5112932;28;20510;-66
2024/03/22 10:44:45;;;;;;;3.47;1.50;;;31.50;22.20;;;;;;5113534;28;20470;-66
2024/03/22 10:47:17;;;;;;;3.63;1.70;;;31.60;21.60;;;;;;5113530;28;20442;-66
2024/03/22 10:49:46;;;;;;;3.33;1.60;;;31.60;21.50;;;;;;5113289;28;20455;-67
2024/03/22 10:52:14;;;;;;;3.23;1.30;;;31.80;21.70;;;;;;5113610;28;20430;-66
2024/03/22 10:54:43;;;;;;;4.87;1.57;;;32.20;21.00;;;;;;5113275;28;20442;-68
2024/03/22 10:57:14;;;;;;;2.93;1.27;;;32.50;21.10;;;;;;5113474;28;20430;-68
2024/03/22 10:59:41;;;;;;;3.50;1.60;;;33.00;21.80;;;;;;5113678;28;20485;-67
2024/03/22 11:02:11;;;;;;;3.43;1.50;;;33.60;20.10;;;;;;5113320;28;20434;-67
2024/03/22 11:04:39;;;;;;;4.27;1.83;;;33.90;19.30;;;;;;5113323;28;20556;-67
2024/03/22 11:07:08;;;;;;;5.00;1.80;;;34.30;19.70;;;;;;5113021;28;20500;-68
2024/03/22 11:09:34;;;;;;;3.73;1.50;;;34.70;18.30;;;;;;5113370;28;20433;-67
2024/03/22 11:12:01;;;;;;;3.90;1.77;;;34.90;19.30;;;;;;5112966;28;20992;-68
2024/03/22 11:14:26;;;;;;;2.70;1.40;;;35.00;18.80;;;;;;5113415;28;20192;-68
2024/03/22 11:16:54;;;;;;;3.43;1.50;;;35.00;18.70;;;;;;5113300;28;20491;-68
2024/03/22 11:19:20;;;;;;;3.23;1.50;;;35.20;19.00;;;;;;5113584;28;20488;-68
2024/03/22 11:21:48;;;;;;;3.80;1.63;;;35.20;17.60;;;;;;5113585;28;20461;-68
2024/03/22 11:24:15;;;;;;;4.23;1.90;;;35.30;18.60;;;;;;5113496;28;20870;-68
2024/03/22 11:26:44;;;;;;;3.90;1.43;;;35.50;18.60;;;;;;5113362;28;20462;-68
2024/03/22 11:29:10;;;;;;;4.77;1.77;;;35.50;17.00;;;;;;5113517;28;20426;-68
2024/03/22 11:31:37;;;;;;;4.17;2.20;;;35.40;18.10;;;;;;5113482;28;20954;-68
2024/03/22 11:34:03;;;;;;;2.60;1.23;;;35.40;16.30;;;;;;5113503;28;20845;-68
2024/03/22 11:36:30;;;;;;;2.43;1.20;;;35.30;17.40;;;;;;5113166;28;20529;-67
2024/03/22 11:38:58;;;;;;;3.00;1.30;;;35.30;17.20;;;;;;5113378;28;20430;-67
2024/03/22 11:41:29;;;;;;;3.33;1.00;;;35.30;16.00;;;;;;5113050;28;20433;-67
2024/03/22 11:43:55;;;;;;;3.43;1.60;;;35.30;15.30;;;;;;5097418;28;20497;-67
2024/03/22 11:46:23;;;;;;;3.20;1.43;;;35.20;15.70;;;;;;5090716;28;20435;-67
2024/03/22 11:48:51;;;;;;;4.23;1.70;;;35.20;16.60;;;;;;5092252;28;21102;-67
2024/03/22 11:51:19;;;;;;;3.30;1.70;;;35.10;15.90;;;;;;5092285;28;20435;-67
2024/03/22 11:53:50;;;;;;;2.90;1.40;;;35.10;15.90;;;;;;5094170;28;20457;-67
2024/03/22 11:56:20;;;;;;;7.30;1.70;;;35.00;15.20;;;;;;5095991;28;20439;-67
2024/03/22 11:58:48;;;;;;;2.50;1.40;;;34.70;15.20;;;;;;5096126;28;20965;-67
2024/03/22 12:01:15;;;;;;;2.90;1.33;;;34.30;14.80;;;;;;5095946;28;20940;-67
2024/03/22 12:03:44;;;;;;;2.30;0.97;;;33.80;14.80;;;;;;5095745;28;20481;-67
2024/03/22 12:06:11;;;;;;;2.63;1.37;;;33.40;16.10;;;;;;5095740;28;20454;-67
2024/03/22 12:08:40;;;;;;;3.30;1.50;;;33.30;17.00;;;;;;5105042;28;20621;-67
2024/03/22 12:11:08;;;;;;;3.13;1.50;;;33.40;16.10;;;;;;5116493;28;20562;-67
2024/03/22 12:13:36;;;;;;;3.70;1.30;;;33.30;16.30;;;;;;5116333;28;20445;-67
2024/03/22 12:16:04;;;;;;;4.17;1.73;;;33.30;16.50;;;;;;5115736;28;20525;-68
2024/03/22 12:18:30;;;;;;;3.70;1.33;;;33.30;16.10;;;;;;5116615;28;20434;-66
2024/03/22 12:20:57;;;;;;;6.23;1.73;;;33.40;16.60;;;;;;5116212;28;20434;-66
2024/03/22 12:23:24;;;;;;;3.23;1.60;;;33.30;15.50;;;;;;5116459;28;20828;-66
2024/03/22 12:25:51;;;;;;;3.00;2.00;;;32.80;14.90;;;;;;5115733;28;20605;-66
2024/03/22 12:28:17;;;;;;;2.70;1.33;;;32.50;16.70;;;;;;5115902;28;20955;-66
2024/03/22 12:30:46;;;;;;;3.80;1.60;;;32.40;18.00;;;;;;5116405;28;20470;-66
2024/03/22 12:33:12;;;;;;;4.40;1.50;;;32.40;18.30;;;;;;5115613;28;20192;-66
2024/03/22 12:35:41;;;;;;;4.23;1.63;;;32.40;17.30;;;;;;5115800;28;20479;-67
2024/03/22 12:38:07;;;;;;;2.73;1.50;;;32.40;16.90;;;;;;5115780;28;20534;-66
2024/03/22 12:40:34;;;;;;;4.10;1.57;;;32.30;18.00;;;;;;5116107;28;20513;-66
2024/03/22 12:43:00;;;;;;;2.43;1.20;;;32.30;19.10;;;;;;5116329;28;20477;-66
2024/03/22 12:45:27;;;;;;;6.63;1.30;;;32.20;18.70;;;;;;5115670;28;20509;-66
2024/03/22 12:47:55;;;;;;;4.50;1.40;;;32.10;19.30;;;;;;5116100;28;20909;-66
2024/03/22 12:50:22;;;;;;;2.83;1.43;;;31.90;19.60;;;;;;5115631;28;20427;-67
2024/03/22 12:52:49;;;;;;;3.37;1.40;;;31.70;19.30;;;;;;5115137;28;20518;-67
2024/03/22 12:55:16;;;;;;;2.60;1.43;;;31.50;19.70;;;;;;5115442;28;20441;-67
2024/03/22 12:57:43;;;;;;;2.97;1.23;;;31.20;19.70;;;;;;5115162;28;20487;-67
2024/03/22 13:00:19;;;;;;;3.07;1.33;;;31.00;19.40;;;;;;5115740;28;20487;-66
2024/03/22 13:02:46;;;;;;;3.27;1.50;;;30.60;19.50;;;;;;5113614;28;20406;-66
2024/03/22 13:05:18;;;;;;;3.97;1.27;;;30.20;20.10;;;;;;5114680;28;20462;-66
2024/03/22 13:07:44;;;;;;;2.30;1.23;;;29.90;20.50;;;;;;5115629;28;20461;-66
2024/03/22 13:10:11;;;;;;;2.93;1.40;;;29.70;21.20;;;;;;5115654;28;20474;-68
2024/03/22 13:12:37;;;;;;;3.50;1.63;;;29.40;21.50;;;;;;5115329;28;20461;-67
2024/03/22 13:15:05;;;;;;;2.93;1.40;;;29.20;22.30;;;;;;5115030;28;20445;-66
2024/03/22 13:17:39;;;;;;;3.63;1.13;;;28.90;22.50;;;;;;5114980;28;20427;-66
2024/03/22 13:20:10;;;;;;;2.90;1.50;;;28.70;22.60;;;;;;5114955;28;20744;-66
2024/03/22 13:22:38;;;;;;;2.70;1.43;;;28.40;23.00;;;;;;5115157;28;20426;-66
2024/03/22 13:25:07;;;;;;;4.57;1.50;;;28.10;21.70;;;;;;5114574;28;20561;-66
2024/03/22 13:27:33;;;;;;;4.50;1.80;;;27.90;23.10;;;;;;5114796;28;20893;-66
2024/03/22 13:30:00;;;;;;;2.87;1.60;;;27.70;23.90;;;;;;5114806;28;20853;-67
2024/03/22 13:32:27;;;;;;;2.90;1.27;;;27.50;24.50;;;;;;5115239;28;20437;-66
2024/03/22 13:34:59;;;;;;;2.80;1.47;;;27.30;24.40;;;;;;5115074;28;20438;-66
2024/03/22 13:37:25;;;;;;;4.30;1.27;;;27.20;24.70;;;;;;5115043;28;20505;-66
2024/03/22 13:39:54;;;;;;;5.57;1.63;;;27.10;24.30;;;;;;5115010;28;20430;-66
2024/03/22 13:42:20;;;;;;;2.97;1.40;;;27.00;24.40;;;;;;5114619;28;20565;-66
2024/03/22 13:44:47;;;;;;;2.70;1.40;;;26.90;24.80;;;;;;5114420;28;20462;-66
2024/03/22 13:47:13;;;;;;;3.80;1.40;;;26.70;25.00;;;;;;5114803;28;20454;-67
2024/03/22 13:49:41;;;;;;;2.97;1.60;;;26.50;25.20;;;;;;5114729;28;20441;-66
2024/03/22 13:52:07;;;;;;;3.00;1.33;;;26.40;24.70;;;;;;5114814;28;20518;-66
2024/03/22 13:54:34;;;;;;;2.77;1.40;;;26.30;24.60;;;;;;5114834;28;20434;-66
2024/03/22 13:57:02;;;;;;;2.77;1.50;;;26.20;24.40;;;;;;5114554;28;20450;-66
2024/03/22 13:59:29;;;;;;;7.40;1.80;;;26.00;24.20;;;;;;5114373;28;20513;-66
2024/03/22 14:01:56;;;;;;;8.23;1.40;;;25.90;23.70;;;;;;5114729;28;20438;-66
2024/03/22 14:04:23;;;;;;;4.00;1.50;;;25.80;24.00;;;;;;5114657;28;20458;-66
2024/03/22 14:06:49;;;;;;;2.70;1.13;;;25.70;23.80;;;;;;5114681;28;20771;-66
2024/03/22 14:09:16;;;;;;;6.47;1.50;;;25.60;24.00;;;;;;5114854;28;20479;-66
2024/03/22 14:11:42;;;;;;;7.93;1.30;;;25.40;25.00;;;;;;5114468;28;20430;-66
2024/03/22 14:14:11;;;;;;;4.33;1.43;;;25.20;25.30;;;;;;5114925;28;20456;-66
2024/03/22 14:16:38;;;;;;;3.27;1.30;;;25.10;25.80;;;;;;5114160;28;20772;-66
2024/03/22 14:19:04;;;;;;;2.70;1.10;;;25.00;25.30;;;;;;5114341;28;20509;-66
2024/03/22 14:21:30;;;;;;;2.37;1.10;;;25.00;25.30;;;;;;5114366;28;20902;-66
2024/03/22 14:23:57;;;;;;;5.20;1.33;;;24.90;24.90;;;;;;5113935;28;20493;-66
2024/03/22 14:26:23;;;;;;;2.83;1.40;;;24.80;24.90;;;;;;5113855;28;20454;-66
2024/03/22 14:28:52;;;;;;;4.10;1.30;;;24.70;24.90;;;;;;5114275;28;20434;-66
2024/03/22 14:31:19;;;;;;;3.53;1.60;;;24.70;24.10;;;;;;5114310;28;20776;-66
2024/03/22 14:33:47;;;;;;;3.43;1.40;;;24.50;24.70;;;;;;5114259;28;20867;-66
2024/03/22 14:36:13;;;;;;;3.10;1.40;;;24.40;24.30;;;;;;5113834;28;20940;-66
2024/03/22 14:38:42;;;;;;;3.00;1.30;;;24.30;25.10;;;;;;5114145;28;20466;-66
2024/03/22 14:41:08;;;;;;;4.00;1.40;;;24.20;25.20;;;;;;5114095;28;20430;-66
2024/03/22 14:43:35;;;;;;;2.60;1.20;;;24.10;25.50;;;;;;5113953;28;20438;-66
2024/03/22 14:46:02;;;;;;;3.03;1.13;;;24.00;25.40;;;;;;5113865;28;20475;-66
2024/03/22 14:48:31;;;;;;;4.40;1.37;;;23.90;25.70;;;;;;5113926;28;20853;-66
2024/03/22 14:50:57;;;;;;;2.57;1.10;;;23.80;25.80;;;;;;5113616;28;20903;-66
2024/03/22 14:53:25;;;;;;;2.20;1.10;;;23.70;25.50;;;;;;5113572;28;20529;-65
2024/03/22 14:55:58;;;;;;;2.50;1.10;;;23.70;25.10;;;;;;5113761;28;20514;-65
2024/03/22 14:58:26;;;;;;;2.77;1.10;;;23.50;25.00;;;;;;5113560;28;20433;-66
2024/03/22 15:00:53;;;;;;;4.67;1.60;;;23.40;25.10;;;;;;5113518;28;20426;-66
2024/03/22 15:03:20;;;;;;;3.47;1.37;;;23.30;25.50;;;;;;5113843;28;20473;-66
2024/03/22 15:05:47;;;;;;;4.33;1.43;;;23.30;26.10;;;;;;5113401;28;20952;-66
2024/03/22 15:08:14;;;;;;;3.83;1.33;;;23.10;26.20;;;;;;5113811;28;20434;-66
2024/03/22 15:10:41;;;;;;;3.43;1.57;;;23.10;26.60;;;;;;5113358;28;20475;-66
2024/03/22 15:13:08;;;;;;;2.47;1.13;;;23.00;27.60;;;;;;5113675;28;20483;-66
2024/03/22 15:15:34;;;;;;;3.20;1.27;;;22.90;27.10;;;;;;5113729;28;20426;-66
2024/03/22 15:18:06;;;;;;;4.93;1.40;;;22.80;26.80;;;;;;5113282;28;20952;-66
2024/03/22 15:20:32;;;;;;;3.93;1.40;;;22.80;26.50;;;;;;5113736;28;20803;-66
2024/03/22 15:23:00;;;;;;;3.37;1.53;;;22.70;27.20;;;;;;5113600;28;20434;-66
2024/03/22 15:25:27;;;;;;;5.10;1.57;;;22.60;27.10;;;;;;5113190;28;20992;-67
2024/03/22 15:27:54;;;;;;;4.43;1.63;;;22.50;26.50;;;;;;5115832;28;20814;-67
2024/03/22 15:30:20;;;;;;;2.93;1.40;;;22.50;26.60;;;;;;5117493;28;20900;-67
2024/03/22 15:32:47;;;;;;;2.80;1.50;;;22.40;26.90;;;;;;5117453;28;20490;-67
2024/03/22 15:35:13;;;;;;;3.93;1.13;;;22.30;27.20;;;;;;5117156;28;20482;-67
2024/03/22 15:37:40;;;;;;;2.63;1.40;;;22.30;27.30;;;;;;5117560;28;20434;-67
2024/03/22 15:40:09;;;;;;;2.80;1.20;;;22.20;27.90;;;;;;5117076;28;20430;-67
2024/03/22 15:42:36;;;;;;;3.10;1.10;;;22.20;28.00;;;;;;5117115;28;20429;-67
2024/03/22 15:45:03;;;;;;;2.23;0.90;;;22.20;28.60;;;;;;5117312;28;20505;-67
2024/03/22 15:47:30;;;;;;;5.50;2.73;;;22.20;29.50;;;;;;5117313;28;20430;-67
2024/03/22 15:49:56;;;;;;;4.90;3.07;;;22.20;29.80;;;;;;5117424;28;20462;-67
2024/03/22 15:52:23;;;;;;;5.60;2.90;;;22.10;28.60;;;;;;5117341;28;20867;-67
2024/03/22 15:54:49;;;;;;;6.20;2.10;;;22.10;28.60;;;;;;5117288;28;20840;-67
2024/03/22 15:57:18;;;;;;;4.03;1.40;;;22.00;28.70;;;;;;5117227;28;20438;-67
2024/03/22 15:59:44;;;;;;;4.30;1.30;;;22.00;29.00;;;;;;5117127;28;20465;-67
2024/03/22 16:02:13;;;;;;;2.30;1.30;;;22.00;28.70;;;;;;5117131;28;20518;-67